sensor_id;sensor_type;location;lat;lon;timestamp;temperature;humidity
71084;DHT22;58741;52.672;13.548;2023-04-08T00:02:10;5.80;99.90
71084;DHT22;58741;52.672;13.548;2023-04-08T00:04:36;5.80;99.90
71084;DHT22;58741;52.672;13.548;2023-04-08T00:07:01;5.80;99.90
71084;DHT22;58741;52.672;13.548;2023-04-08T00:09:27;5.80;99.90
71084;DHT22;58741;52.672;13.548;2023-04-08T00:11:52;5.80;99.90
71084;DHT22;58741;52.672;13.548;2023-04-08T00:14:18;5.80;99.90
71084;DHT22;58741;52.672;13.548;2023-04-08T00:16:44;5.80;99.90
71084;DHT22;58741;52.672;13.548;2023-04-08T00:19:09;5.80;99.90
71084;DHT22;58741;52.672;13.548;2023-04-08T00:21:35;5.70;99.90
71084;DHT22;58741;52.672;13.548;2023-04-08T00:24:01;5.80;99.90
71084;DHT22;58741;52.672;13.548;2023-04-08T00:26:27;5.80;99.90
71084;DHT22;58741;52.672;13.548;2023-04-08T00:28:52;5.80;99.90
71084;DHT22;58741;52.672;13.548;2023-04-08T00:31:18;5.80;99.90
71084;DHT22;58741;52.672;13.548;2023-04-08T00:33:43;5.70;99.90
71084;DHT22;58741;52.672;13.548;2023-04-08T00:36:09;5.70;99.90
71084;DHT22;58741;52.672;13.548;2023-04-08T00:38:34;5.70;99.90
71084;DHT22;58741;52.672;13.548;2023-04-08T00:41:00;5.80;99.90
71084;DHT22;58741;52.672;13.548;2023-04-08T00:43:26;5.80;99.90
71084;DHT22;58741;52.672;13.548;2023-04-08T00:45:51;5.80;99.90
71084;DHT22;58741;52.672;13.548;2023-04-08T00:48:17;5.80;99.90
71084;DHT22;58741;52.672;13.548;2023-04-08T00:50:43;5.80;99.90
71084;DHT22;58741;52.672;13.548;2023-04-08T00:53:09;5.80;99.90
71084;DHT22;58741;52.672;13.548;2023-04-08T00:55:34;5.70;99.90
71084;DHT22;58741;52.672;13.548;2023-04-08T01:00:12;5.80;99.90
71084;DHT22;58741;52.672;13.548;2023-04-08T01:03:08;5.70;99.90
71084;DHT22;58741;52.672;13.548;2023-04-08T01:08:06;5.80;99.90
71084;DHT22;58741;52.672;13.548;2023-04-08T01:10:34;5.80;99.90
71084;DHT22;58741;52.672;13.548;2023-04-08T01:13:07;5.70;99.90
71084;DHT22;58741;52.672;13.548;2023-04-08T01:15:36;5.70;99.90
71084;DHT22;58741;52.672;13.548;2023-04-08T01:18:06;5.80;99.90
71084;DHT22;58741;52.672;13.548;2023-04-08T01:20:33;5.80;99.90
71084;DHT22;58741;52.672;13.548;2023-04-08T01:23:32;5.80;99.90
71084;DHT22;58741;52.672;13.548;2023-04-08T01:26:01;5.80;99.90
71084;DHT22;58741;52.672;13.548;2023-04-08T01:28:28;5.80;99.90
71084;DHT22;58741;52.672;13.548;2023-04-08T01:30:58;5.80;99.90
71084;DHT22;58741;52.672;13.548;2023-04-08T01:33:26;5.80;99.90
71084;DHT22;58741;52.672;13.548;2023-04-08T01:35:54;5.80;99.90
71084;DHT22;58741;52.672;13.548;2023-04-08T01:38:23;5.80;99.90
71084;DHT22;58741;52.672;13.548;2023-04-08T01:40:50;5.80;99.90
71084;DHT22;58741;52.672;13.548;2023-04-08T01:45:29;5.80;99.90
71084;DHT22;58741;52.672;13.548;2023-04-08T01:47:56;5.80;99.90
71084;DHT22;58741;52.672;13.548;2023-04-08T01:50:24;5.80;99.90
71084;DHT22;58741;52.672;13.548;2023-04-08T01:52:51;5.80;99.90
71084;DHT22;58741;52.672;13.548;2023-04-08T01:55:18;5.80;99.90
71084;DHT22;58741;52.672;13.548;2023-04-08T01:57:48;5.80;99.90
71084;DHT22;58741;52.672;13.548;2023-04-08T02:00:19;5.80;99.90
71084;DHT22;58741;52.672;13.548;2023-04-08T02:02:46;5.80;99.90
71084;DHT22;58741;52.672;13.548;2023-04-08T02:07:23;5.80;99.90
71084;DHT22;58741;52.672;13.548;2023-04-08T02:09:52;5.80;99.90
71084;DHT22;58741;52.672;13.548;2023-04-08T02:12:17;5.80;99.90
71084;DHT22;58741;52.672;13.548;2023-04-08T02:14:43;5.80;99.90
71084;DHT22;58741;52.672;13.548;2023-04-08T02:17:24;5.80;99.90
71084;DHT22;58741;52.672;13.548;2023-04-08T02:19:54;5.80;99.90
71084;DHT22;58741;52.672;13.548;2023-04-08T02:24:58;5.80;99.90
71084;DHT22;58741;52.672;13.548;2023-04-08T02:27:26;5.80;99.90
71084;DHT22;58741;52.672;13.548;2023-04-08T02:29:54;5.80;99.90
71084;DHT22;58741;52.672;13.548;2023-04-08T02:32:22;5.80;99.90
71084;DHT22;58741;52.672;13.548;2023-04-08T02:34:49;5.80;99.90
71084;DHT22;58741;52.672;13.548;2023-04-08T02:37:15;5.80;99.90
71084;DHT22;58741;52.672;13.548;2023-04-08T02:39:40;5.80;99.90
71084;DHT22;58741;52.672;13.548;2023-04-08T02:42:09;5.80;99.90
71084;DHT22;58741;52.672;13.548;2023-04-08T02:44:35;5.80;99.90
71084;DHT22;58741;52.672;13.548;2023-04-08T02:47:02;5.80;99.90
71084;DHT22;58741;52.672;13.548;2023-04-08T02:49:27;5.80;99.90
71084;DHT22;58741;52.672;13.548;2023-04-08T02:51:53;5.80;99.90
71084;DHT22;58741;52.672;13.548;2023-04-08T02:54:18;5.80;99.90
71084;DHT22;58741;52.672;13.548;2023-04-08T02:56:44;5.80;99.90
71084;DHT22;58741;52.672;13.548;2023-04-08T02:59:10;5.80;99.90
71084;DHT22;58741;52.672;13.548;2023-04-08T03:01:35;5.80;99.90
71084;DHT22;58741;52.672;13.548;2023-04-08T03:06:13;5.80;99.90
71084;DHT22;58741;52.672;13.548;2023-04-08T03:08:38;5.80;99.90
71084;DHT22;58741;52.672;13.548;2023-04-08T03:11:04;5.80;99.90
71084;DHT22;58741;52.672;13.548;2023-04-08T03:13:29;5.80;99.90
71084;DHT22;58741;52.672;13.548;2023-04-08T03:15:56;5.80;99.90
71084;DHT22;58741;52.672;13.548;2023-04-08T03:18:22;5.80;99.90
71084;DHT22;58741;52.672;13.548;2023-04-08T03:20:47;5.80;99.90
71084;DHT22;58741;52.672;13.548;2023-04-08T03:23:13;5.80;99.90
71084;DHT22;58741;52.672;13.548;2023-04-08T03:25:38;5.80;99.90
71084;DHT22;58741;52.672;13.548;2023-04-08T03:28:04;5.80;99.90
71084;DHT22;58741;52.672;13.548;2023-04-08T03:30:30;5.80;99.90
71084;DHT22;58741;52.672;13.548;2023-04-08T03:32:55;5.80;99.90
71084;DHT22;58741;52.672;13.548;2023-04-08T03:35:21;5.80;99.90
71084;DHT22;58741;52.672;13.548;2023-04-08T03:37:46;5.70;99.90
71084;DHT22;58741;52.672;13.548;2023-04-08T03:40:13;5.80;99.90
71084;DHT22;58741;52.672;13.548;2023-04-08T03:42:38;5.80;99.90
71084;DHT22;58741;52.672;13.548;2023-04-08T03:45:04;5.80;99.90
71084;DHT22;58741;52.672;13.548;2023-04-08T03:47:30;5.80;99.90
71084;DHT22;58741;52.672;13.548;2023-04-08T03:49:55;5.80;99.90
71084;DHT22;58741;52.672;13.548;2023-04-08T03:52:21;5.80;99.90
71084;DHT22;58741;52.672;13.548;2023-04-08T03:54:47;5.80;99.90
71084;DHT22;58741;52.672;13.548;2023-04-08T03:57:13;5.80;99.90
71084;DHT22;58741;52.672;13.548;2023-04-08T03:59:38;5.80;99.90
71084;DHT22;58741;52.672;13.548;2023-04-08T04:02:05;5.80;99.90
71084;DHT22;58741;52.672;13.548;2023-04-08T04:04:31;5.80;99.90
71084;DHT22;58741;52.672;13.548;2023-04-08T04:06:57;5.80;99.90
71084;DHT22;58741;52.672;13.548;2023-04-08T04:09:22;5.80;99.90
71084;DHT22;58741;52.672;13.548;2023-04-08T04:11:48;5.80;99.90
71084;DHT22;58741;52.672;13.548;2023-04-08T04:14:13;5.80;99.90
71084;DHT22;58741;52.672;13.548;2023-04-08T04:16:39;5.80;99.90
71084;DHT22;58741;52.672;13.548;2023-04-08T04:19:04;5.80;99.90
71084;DHT22;58741;52.672;13.548;2023-04-08T04:21:30;5.80;99.90
71084;DHT22;58741;52.672;13.548;2023-04-08T04:23:56;5.80;99.90
71084;DHT22;58741;52.672;13.548;2023-04-08T04:26:21;5.80;99.90
71084;DHT22;58741;52.672;13.548;2023-04-08T04:28:47;5.80;99.90
71084;DHT22;58741;52.672;13.548;2023-04-08T04:31:22;5.80;99.90
71084;DHT22;58741;52.672;13.548;2023-04-08T04:33:50;5.80;99.90
71084;DHT22;58741;52.672;13.548;2023-04-08T04:36:16;5.80;99.90
71084;DHT22;58741;52.672;13.548;2023-04-08T04:38:43;5.80;99.90
71084;DHT22;58741;52.672;13.548;2023-04-08T04:41:08;5.80;99.90
71084;DHT22;58741;52.672;13.548;2023-04-08T04:43:34;5.80;99.90
71084;DHT22;58741;52.672;13.548;2023-04-08T04:46:00;5.80;99.90
71084;DHT22;58741;52.672;13.548;2023-04-08T04:48:26;5.80;99.90
71084;DHT22;58741;52.672;13.548;2023-04-08T04:50:56;5.80;99.90
71084;DHT22;58741;52.672;13.548;2023-04-08T04:53:21;5.80;99.90
71084;DHT22;58741;52.672;13.548;2023-04-08T04:55:47;5.80;99.90
71084;DHT22;58741;52.672;13.548;2023-04-08T04:58:12;5.80;99.90
71084;DHT22;58741;52.672;13.548;2023-04-08T05:00:38;5.80;99.90
71084;DHT22;58741;52.672;13.548;2023-04-08T05:03:04;5.80;99.90
71084;DHT22;58741;52.672;13.548;2023-04-08T05:05:29;5.80;99.90
71084;DHT22;58741;52.672;13.548;2023-04-08T05:07:55;5.80;99.90
71084;DHT22;58741;52.672;13.548;2023-04-08T05:10:21;5.80;99.90
71084;DHT22;58741;52.672;13.548;2023-04-08T05:12:47;5.80;99.90
71084;DHT22;58741;52.672;13.548;2023-04-08T05:15:12;5.80;99.90
71084;DHT22;58741;52.672;13.548;2023-04-08T05:17:38;5.80;99.90
71084;DHT22;58741;52.672;13.548;2023-04-08T05:20:04;5.80;99.90
71084;DHT22;58741;52.672;13.548;2023-04-08T05:22:30;5.90;99.90
71084;DHT22;58741;52.672;13.548;2023-04-08T05:24:55;5.90;99.90
71084;DHT22;58741;52.672;13.548;2023-04-08T05:27:21;5.90;99.90
71084;DHT22;58741;52.672;13.548;2023-04-08T05:29:46;5.90;99.90
71084;DHT22;58741;52.672;13.548;2023-04-08T05:32:12;5.90;99.90
71084;DHT22;58741;52.672;13.548;2023-04-08T05:34:38;5.90;99.90
71084;DHT22;58741;52.672;13.548;2023-04-08T05:37:03;5.90;99.90
71084;DHT22;58741;52.672;13.548;2023-04-08T05:39:29;6.00;99.90
71084;DHT22;58741;52.672;13.548;2023-04-08T05:41:54;6.00;99.90
71084;DHT22;58741;52.672;13.548;2023-04-08T05:44:20;6.00;99.90
71084;DHT22;58741;52.672;13.548;2023-04-08T05:46:46;6.00;99.90
71084;DHT22;58741;52.672;13.548;2023-04-08T05:49:11;6.00;99.90
71084;DHT22;58741;52.672;13.548;2023-04-08T05:51:38;6.00;99.90
71084;DHT22;58741;52.672;13.548;2023-04-08T05:54:03;6.00;99.90
71084;DHT22;58741;52.672;13.548;2023-04-08T05:56:29;6.00;99.90
71084;DHT22;58741;52.672;13.548;2023-04-08T05:58:56;6.10;99.90
71084;DHT22;58741;52.672;13.548;2023-04-08T06:01:22;6.10;99.90
71084;DHT22;58741;52.672;13.548;2023-04-08T06:03:48;6.10;99.90
71084;DHT22;58741;52.672;13.548;2023-04-08T06:06:13;6.10;99.90
71084;DHT22;58741;52.672;13.548;2023-04-08T06:08:39;6.10;99.90
71084;DHT22;58741;52.672;13.548;2023-04-08T06:11:05;6.10;99.90
71084;DHT22;58741;52.672;13.548;2023-04-08T06:13:31;6.10;99.90
71084;DHT22;58741;52.672;13.548;2023-04-08T06:15:56;6.20;99.90
71084;DHT22;58741;52.672;13.548;2023-04-08T06:18:22;6.20;99.90
71084;DHT22;58741;52.672;13.548;2023-04-08T06:20:47;6.20;99.90
71084;DHT22;58741;52.672;13.548;2023-04-08T06:23:13;6.30;99.90
71084;DHT22;58741;52.672;13.548;2023-04-08T06:25:39;6.30;99.90
71084;DHT22;58741;52.672;13.548;2023-04-08T06:28:04;6.30;99.90
71084;DHT22;58741;52.672;13.548;2023-04-08T06:30:30;6.30;99.90
71084;DHT22;58741;52.672;13.548;2023-04-08T06:32:55;6.30;99.90
71084;DHT22;58741;52.672;13.548;2023-04-08T06:35:21;6.40;99.90
71084;DHT22;58741;52.672;13.548;2023-04-08T06:37:46;6.40;99.90
71084;DHT22;58741;52.672;13.548;2023-04-08T06:40:12;6.40;99.90
71084;DHT22;58741;52.672;13.548;2023-04-08T06:42:38;6.40;99.90
71084;DHT22;58741;52.672;13.548;2023-04-08T06:45:14;6.50;99.90
71084;DHT22;58741;52.672;13.548;2023-04-08T06:47:40;6.50;99.90
71084;DHT22;58741;52.672;13.548;2023-04-08T06:50:06;6.50;99.90
71084;DHT22;58741;52.672;13.548;2023-04-08T06:52:31;6.60;99.90
71084;DHT22;58741;52.672;13.548;2023-04-08T06:54:57;6.60;99.90
71084;DHT22;58741;52.672;13.548;2023-04-08T06:57:22;6.60;99.90
71084;DHT22;58741;52.672;13.548;2023-04-08T06:59:48;6.70;99.90
71084;DHT22;58741;52.672;13.548;2023-04-08T07:02:14;6.70;99.90
71084;DHT22;58741;52.672;13.548;2023-04-08T07:04:40;6.70;99.90
71084;DHT22;58741;52.672;13.548;2023-04-08T07:07:05;6.80;99.90
71084;DHT22;58741;52.672;13.548;2023-04-08T07:09:31;6.80;99.90
71084;DHT22;58741;52.672;13.548;2023-04-08T07:11:57;6.90;99.90
71084;DHT22;58741;52.672;13.548;2023-04-08T07:14:24;6.90;99.90
71084;DHT22;58741;52.672;13.548;2023-04-08T07:16:49;7.00;99.90
71084;DHT22;58741;52.672;13.548;2023-04-08T07:19:15;7.00;99.90
71084;DHT22;58741;52.672;13.548;2023-04-08T07:21:40;7.10;99.90
71084;DHT22;58741;52.672;13.548;2023-04-08T07:24:06;7.10;99.90
71084;DHT22;58741;52.672;13.548;2023-04-08T07:26:32;7.20;99.90
71084;DHT22;58741;52.672;13.548;2023-04-08T07:28:57;7.20;99.90
71084;DHT22;58741;52.672;13.548;2023-04-08T07:31:23;7.20;99.90
71084;DHT22;58741;52.672;13.548;2023-04-08T07:33:48;7.30;99.90
71084;DHT22;58741;52.672;13.548;2023-04-08T07:36:14;7.40;99.90
71084;DHT22;58741;52.672;13.548;2023-04-08T07:38:40;7.40;99.90
71084;DHT22;58741;52.672;13.548;2023-04-08T07:41:06;7.40;99.90
71084;DHT22;58741;52.672;13.548;2023-04-08T07:43:32;7.50;99.90
71084;DHT22;58741;52.672;13.548;2023-04-08T07:46:02;7.50;99.90
71084;DHT22;58741;52.672;13.548;2023-04-08T07:48:28;7.60;99.90
71084;DHT22;58741;52.672;13.548;2023-04-08T07:50:54;7.70;99.90
71084;DHT22;58741;52.672;13.548;2023-04-08T07:53:20;7.70;99.90
71084;DHT22;58741;52.672;13.548;2023-04-08T07:55:47;7.80;99.90
71084;DHT22;58741;52.672;13.548;2023-04-08T07:58:12;7.80;99.90
71084;DHT22;58741;52.672;13.548;2023-04-08T08:00:38;8.00;99.90
71084;DHT22;58741;52.672;13.548;2023-04-08T08:03:05;8.00;99.90
71084;DHT22;58741;52.672;13.548;2023-04-08T08:05:30;8.10;99.90
71084;DHT22;58741;52.672;13.548;2023-04-08T08:07:56;8.10;99.90
71084;DHT22;58741;52.672;13.548;2023-04-08T08:10:22;8.20;99.90
71084;DHT22;58741;52.672;13.548;2023-04-08T08:12:47;8.30;99.90
71084;DHT22;58741;52.672;13.548;2023-04-08T08:15:13;8.40;99.90
71084;DHT22;58741;52.672;13.548;2023-04-08T08:17:39;8.40;99.90
71084;DHT22;58741;52.672;13.548;2023-04-08T08:20:05;8.50;99.90
71084;DHT22;58741;52.672;13.548;2023-04-08T08:22:31;8.50;99.90
71084;DHT22;58741;52.672;13.548;2023-04-08T08:24:57;8.60;99.90
71084;DHT22;58741;52.672;13.548;2023-04-08T08:27:24;8.60;99.90
71084;DHT22;58741;52.672;13.548;2023-04-08T08:29:50;8.70;99.90
71084;DHT22;58741;52.672;13.548;2023-04-08T08:32:15;8.70;99.90
71084;DHT22;58741;52.672;13.548;2023-04-08T08:34:41;8.80;99.90
71084;DHT22;58741;52.672;13.548;2023-04-08T08:37:07;8.80;99.90
71084;DHT22;58741;52.672;13.548;2023-04-08T08:39:32;8.80;99.90
71084;DHT22;58741;52.672;13.548;2023-04-08T08:41:58;8.80;99.90
71084;DHT22;58741;52.672;13.548;2023-04-08T08:44:23;8.70;99.90
71084;DHT22;58741;52.672;13.548;2023-04-08T08:46:50;8.80;99.90
71084;DHT22;58741;52.672;13.548;2023-04-08T08:49:15;8.80;99.90
71084;DHT22;58741;52.672;13.548;2023-04-08T08:51:45;8.80;99.90
71084;DHT22;58741;52.672;13.548;2023-04-08T08:54:11;8.80;99.90
71084;DHT22;58741;52.672;13.548;2023-04-08T08:56:37;8.80;99.90
71084;DHT22;58741;52.672;13.548;2023-04-08T08:59:02;8.90;99.90
71084;DHT22;58741;52.672;13.548;2023-04-08T09:01:36;8.90;99.90
71084;DHT22;58741;52.672;13.548;2023-04-08T09:04:19;8.90;99.90
71084;DHT22;58741;52.672;13.548;2023-04-08T09:06:46;8.90;99.90
71084;DHT22;58741;52.672;13.548;2023-04-08T09:09:14;8.90;99.90
71084;DHT22;58741;52.672;13.548;2023-04-08T09:11:42;8.90;99.90
71084;DHT22;58741;52.672;13.548;2023-04-08T09:14:21;8.90;99.90
71084;DHT22;58741;52.672;13.548;2023-04-08T09:16:47;8.90;99.90
71084;DHT22;58741;52.672;13.548;2023-04-08T09:19:13;9.00;99.90
71084;DHT22;58741;52.672;13.548;2023-04-08T09:21:39;9.00;99.90
71084;DHT22;58741;52.672;13.548;2023-04-08T09:24:06;9.00;99.90
71084;DHT22;58741;52.672;13.548;2023-04-08T09:26:32;9.10;99.90
71084;DHT22;58741;52.672;13.548;2023-04-08T09:29:07;9.10;99.90
71084;DHT22;58741;52.672;13.548;2023-04-08T09:31:37;9.20;99.90
71084;DHT22;58741;52.672;13.548;2023-04-08T09:34:13;9.30;99.90
71084;DHT22;58741;52.672;13.548;2023-04-08T09:36:41;9.30;99.90
71084;DHT22;58741;52.672;13.548;2023-04-08T09:39:07;9.50;99.90
71084;DHT22;58741;52.672;13.548;2023-04-08T09:41:38;9.60;99.90
71084;DHT22;58741;52.672;13.548;2023-04-08T09:44:05;9.80;99.90
71084;DHT22;58741;52.672;13.548;2023-04-08T09:49:09;10.10;99.90
71084;DHT22;58741;52.672;13.548;2023-04-08T09:51:52;10.30;99.90
71084;DHT22;58741;52.672;13.548;2023-04-08T09:54:22;10.60;99.90
71084;DHT22;58741;52.672;13.548;2023-04-08T09:57:04;10.80;99.90
71084;DHT22;58741;52.672;13.548;2023-04-08T09:59:35;11.00;99.80
71084;DHT22;58741;52.672;13.548;2023-04-08T10:02:08;11.10;99.70
71084;DHT22;58741;52.672;13.548;2023-04-08T10:04:38;11.20;99.10
71084;DHT22;58741;52.672;13.548;2023-04-08T10:07:06;11.20;98.00
71084;DHT22;58741;52.672;13.548;2023-04-08T10:09:33;11.30;97.90
71084;DHT22;58741;52.672;13.548;2023-04-08T10:12:00;11.30;97.90
71084;DHT22;58741;52.672;13.548;2023-04-08T10:14:26;11.30;98.00
71084;DHT22;58741;52.672;13.548;2023-04-08T10:17:24;11.40;98.10
71084;DHT22;58741;52.672;13.548;2023-04-08T10:19:51;11.50;97.40
71084;DHT22;58741;52.672;13.548;2023-04-08T10:25:34;11.90;98.70
71084;DHT22;58741;52.672;13.548;2023-04-08T10:28:01;12.20;97.90
71084;DHT22;58741;52.672;13.548;2023-04-08T10:32:53;12.70;95.60
71084;DHT22;58741;52.672;13.548;2023-04-08T10:35:30;12.80;95.00
71084;DHT22;58741;52.672;13.548;2023-04-08T10:37:57;12.90;94.70
71084;DHT22;58741;52.672;13.548;2023-04-08T10:40:23;13.00;95.10
71084;DHT22;58741;52.672;13.548;2023-04-08T10:42:58;13.20;93.50
71084;DHT22;58741;52.672;13.548;2023-04-08T10:45:24;13.30;93.70
71084;DHT22;58741;52.672;13.548;2023-04-08T10:47:50;13.50;92.60
71084;DHT22;58741;52.672;13.548;2023-04-08T10:50:17;13.70;92.60
71084;DHT22;58741;52.672;13.548;2023-04-08T10:55:12;14.10;90.80
71084;DHT22;58741;52.672;13.548;2023-04-08T10:57:38;14.20;90.30
71084;DHT22;58741;52.672;13.548;2023-04-08T11:00:09;14.40;91.90
71084;DHT22;58741;52.672;13.548;2023-04-08T11:02:38;14.70;91.00
71084;DHT22;58741;52.672;13.548;2023-04-08T11:05:04;15.00;90.60
71084;DHT22;58741;52.672;13.548;2023-04-08T11:07:30;15.20;90.30
71084;DHT22;58741;52.672;13.548;2023-04-08T11:09:56;15.50;88.70
71084;DHT22;58741;52.672;13.548;2023-04-08T11:12:21;15.70;88.60
71084;DHT22;58741;52.672;13.548;2023-04-08T11:14:47;15.90;87.80
71084;DHT22;58741;52.672;13.548;2023-04-08T11:17:16;16.10;82.30
71084;DHT22;58741;52.672;13.548;2023-04-08T11:19:42;16.30;83.10
71084;DHT22;58741;52.672;13.548;2023-04-08T11:22:07;16.50;82.10
71084;DHT22;58741;52.672;13.548;2023-04-08T11:24:35;16.70;80.40
71084;DHT22;58741;52.672;13.548;2023-04-08T11:27:03;16.90;75.90
71084;DHT22;58741;52.672;13.548;2023-04-08T11:29:30;17.00;77.10
71084;DHT22;58741;52.672;13.548;2023-04-08T11:31:57;17.10;75.50
71084;DHT22;58741;52.672;13.548;2023-04-08T11:34:23;17.20;72.10
71084;DHT22;58741;52.672;13.548;2023-04-08T11:36:50;17.10;73.60
71084;DHT22;58741;52.672;13.548;2023-04-08T11:39:16;17.10;71.60
71084;DHT22;58741;52.672;13.548;2023-04-08T11:41:41;17.00;69.00
71084;DHT22;58741;52.672;13.548;2023-04-08T11:44:07;16.90;71.90
71084;DHT22;58741;52.672;13.548;2023-04-08T11:46:34;16.80;71.50
71084;DHT22;58741;52.672;13.548;2023-04-08T11:49:05;16.60;70.60
71084;DHT22;58741;52.672;13.548;2023-04-08T11:51:31;16.50;71.60
71084;DHT22;58741;52.672;13.548;2023-04-08T11:53:59;16.30;71.30
71084;DHT22;58741;52.672;13.548;2023-04-08T11:56:24;16.20;71.10
71084;DHT22;58741;52.672;13.548;2023-04-08T11:58:51;16.00;72.10
71084;DHT22;58741;52.672;13.548;2023-04-08T12:01:17;16.00;71.90
71084;DHT22;58741;52.672;13.548;2023-04-08T12:03:54;16.10;75.30
71084;DHT22;58741;52.672;13.548;2023-04-08T12:06:20;16.20;74.10
71084;DHT22;58741;52.672;13.548;2023-04-08T12:08:45;16.30;71.90
71084;DHT22;58741;52.672;13.548;2023-04-08T12:11:11;16.20;73.10
71084;DHT22;58741;52.672;13.548;2023-04-08T12:13:40;16.10;72.50
71084;DHT22;58741;52.672;13.548;2023-04-08T12:16:06;16.20;73.80
71084;DHT22;58741;52.672;13.548;2023-04-08T12:18:31;16.30;72.80
71084;DHT22;58741;52.672;13.548;2023-04-08T12:20:57;16.40;74.60
71084;DHT22;58741;52.672;13.548;2023-04-08T12:23:23;16.50;71.70
71084;DHT22;58741;52.672;13.548;2023-04-08T12:25:48;16.50;71.90
71084;DHT22;58741;52.672;13.548;2023-04-08T12:28:14;16.60;72.40
71084;DHT22;58741;52.672;13.548;2023-04-08T12:30:39;16.60;69.90
71084;DHT22;58741;52.672;13.548;2023-04-08T12:33:05;16.50;70.90
71084;DHT22;58741;52.672;13.548;2023-04-08T12:35:30;16.40;70.50
71084;DHT22;58741;52.672;13.548;2023-04-08T12:37:56;16.40;72.20
71084;DHT22;58741;52.672;13.548;2023-04-08T12:40:22;16.50;72.00
71084;DHT22;58741;52.672;13.548;2023-04-08T12:42:47;16.60;71.50
71084;DHT22;58741;52.672;13.548;2023-04-08T12:45:13;16.50;70.60
71084;DHT22;58741;52.672;13.548;2023-04-08T12:47:39;16.40;71.20
71084;DHT22;58741;52.672;13.548;2023-04-08T12:50:04;16.40;71.20
71084;DHT22;58741;52.672;13.548;2023-04-08T12:52:31;16.40;70.80
71084;DHT22;58741;52.672;13.548;2023-04-08T12:54:57;16.30;69.90
71084;DHT22;58741;52.672;13.548;2023-04-08T12:57:23;16.20;70.40
71084;DHT22;58741;52.672;13.548;2023-04-08T12:59:48;16.20;74.00
71084;DHT22;58741;52.672;13.548;2023-04-08T13:02:14;16.30;73.80
71084;DHT22;58741;52.672;13.548;2023-04-08T13:04:39;16.60;71.10
71084;DHT22;58741;52.672;13.548;2023-04-08T13:07:05;16.70;71.50
71084;DHT22;58741;52.672;13.548;2023-04-08T13:09:32;16.90;69.80
71084;DHT22;58741;52.672;13.548;2023-04-08T13:11:57;17.10;66.70
71084;DHT22;58741;52.672;13.548;2023-04-08T13:14:24;17.30;71.10
71084;DHT22;58741;52.672;13.548;2023-04-08T13:16:49;17.60;71.50
71084;DHT22;58741;52.672;13.548;2023-04-08T13:19:15;17.80;70.20
71084;DHT22;58741;52.672;13.548;2023-04-08T13:21:41;17.90;68.20
71084;DHT22;58741;52.672;13.548;2023-04-08T13:24:06;17.90;67.50
71084;DHT22;58741;52.672;13.548;2023-04-08T13:26:32;17.80;68.80
71084;DHT22;58741;52.672;13.548;2023-04-08T13:28:57;17.80;67.50
71084;DHT22;58741;52.672;13.548;2023-04-08T13:31:23;17.80;67.40
71084;DHT22;58741;52.672;13.548;2023-04-08T13:33:49;17.80;66.80
71084;DHT22;58741;52.672;13.548;2023-04-08T13:36:14;17.70;67.00
71084;DHT22;58741;52.672;13.548;2023-04-08T13:38:40;17.50;67.10
71084;DHT22;58741;52.672;13.548;2023-04-08T13:41:06;17.40;65.60
71084;DHT22;58741;52.672;13.548;2023-04-08T13:43:31;17.30;66.70
71084;DHT22;58741;52.672;13.548;2023-04-08T13:45:57;17.20;67.20
71084;DHT22;58741;52.672;13.548;2023-04-08T13:48:23;17.10;66.10
71084;DHT22;58741;52.672;13.548;2023-04-08T13:50:48;17.00;67.70
71084;DHT22;58741;52.672;13.548;2023-04-08T13:53:14;17.00;68.00
71084;DHT22;58741;52.672;13.548;2023-04-08T13:55:39;17.10;66.00
71084;DHT22;58741;52.672;13.548;2023-04-08T13:58:05;17.20;67.50
71084;DHT22;58741;52.672;13.548;2023-04-08T14:00:31;17.50;64.50
71084;DHT22;58741;52.672;13.548;2023-04-08T14:02:57;17.70;66.70
71084;DHT22;58741;52.672;13.548;2023-04-08T14:05:22;18.00;64.90
71084;DHT22;58741;52.672;13.548;2023-04-08T14:07:48;18.00;64.00
71084;DHT22;58741;52.672;13.548;2023-04-08T14:10:13;18.10;60.60
71084;DHT22;58741;52.672;13.548;2023-04-08T14:12:40;17.90;60.50
71084;DHT22;58741;52.672;13.548;2023-04-08T14:15:06;17.70;61.80
71084;DHT22;58741;52.672;13.548;2023-04-08T14:17:32;17.50;63.00
71084;DHT22;58741;52.672;13.548;2023-04-08T14:20:00;17.50;63.20
71084;DHT22;58741;52.672;13.548;2023-04-08T14:22:26;17.60;64.60
71084;DHT22;58741;52.672;13.548;2023-04-08T14:24:52;17.70;63.50
71084;DHT22;58741;52.672;13.548;2023-04-08T14:27:17;17.80;60.40
71084;DHT22;58741;52.672;13.548;2023-04-08T14:29:43;17.90;62.00
71084;DHT22;58741;52.672;13.548;2023-04-08T14:32:08;18.00;60.60
71084;DHT22;58741;52.672;13.548;2023-04-08T14:34:34;18.00;63.60
71084;DHT22;58741;52.672;13.548;2023-04-08T14:37:00;18.20;61.10
71084;DHT22;58741;52.672;13.548;2023-04-08T14:39:25;18.30;62.30
71084;DHT22;58741;52.672;13.548;2023-04-08T14:41:51;18.50;59.80
71084;DHT22;58741;52.672;13.548;2023-04-08T14:44:17;18.50;60.40
71084;DHT22;58741;52.672;13.548;2023-04-08T14:46:42;18.60;62.30
71084;DHT22;58741;52.672;13.548;2023-04-08T14:49:08;18.80;61.00
71084;DHT22;58741;52.672;13.548;2023-04-08T14:51:33;19.00;59.80
71084;DHT22;58741;52.672;13.548;2023-04-08T14:54:02;19.00;59.80
71084;DHT22;58741;52.672;13.548;2023-04-08T14:56:27;19.00;58.80
71084;DHT22;58741;52.672;13.548;2023-04-08T14:58:53;18.90;57.50
71084;DHT22;58741;52.672;13.548;2023-04-08T15:01:18;18.90;59.20
71084;DHT22;58741;52.672;13.548;2023-04-08T15:03:44;18.90;56.90
71084;DHT22;58741;52.672;13.548;2023-04-08T15:06:10;18.90;59.20
71084;DHT22;58741;52.672;13.548;2023-04-08T15:08:41;19.10;57.80
71084;DHT22;58741;52.672;13.548;2023-04-08T15:11:07;19.30;57.80
71084;DHT22;58741;52.672;13.548;2023-04-08T15:13:33;19.50;57.00
71084;DHT22;58741;52.672;13.548;2023-04-08T15:16:00;19.70;57.30
71084;DHT22;58741;52.672;13.548;2023-04-08T15:18:26;19.90;55.60
71084;DHT22;58741;52.672;13.548;2023-04-08T15:20:52;20.20;55.20
71084;DHT22;58741;52.672;13.548;2023-04-08T15:23:17;20.40;56.50
71084;DHT22;58741;52.672;13.548;2023-04-08T15:25:43;20.70;54.20
71084;DHT22;58741;52.672;13.548;2023-04-08T15:28:08;21.00;53.90
71084;DHT22;58741;52.672;13.548;2023-04-08T15:30:34;21.40;52.60
71084;DHT22;58741;52.672;13.548;2023-04-08T15:33:02;21.30;49.70
71084;DHT22;58741;52.672;13.548;2023-04-08T15:35:28;20.90;51.10
71084;DHT22;58741;52.672;13.548;2023-04-08T15:37:53;20.60;53.10
71084;DHT22;58741;52.672;13.548;2023-04-08T15:40:20;20.20;52.70
71084;DHT22;58741;52.672;13.548;2023-04-08T15:42:45;19.80;53.20
71084;DHT22;58741;52.672;13.548;2023-04-08T15:45:11;19.50;54.40
71084;DHT22;58741;52.672;13.548;2023-04-08T15:47:37;19.10;55.20